createdAt,value
2018-06-21T00:02:09.855Z,9.53
2018-06-21T00:04:38.154Z,9.47
2018-06-21T00:07:06.534Z,15.40
2018-06-21T00:09:34.983Z,7.23
2018-06-21T00:12:03.235Z,13.30
2018-06-21T00:14:31.503Z,10.20
2018-06-21T00:16:59.759Z,16.70
2018-06-21T00:19:28.025Z,9.67
2018-06-21T00:21:56.263Z,10.63
2018-06-21T00:24:24.681Z,14.93
2018-06-21T00:26:52.925Z,10.70
2018-06-21T00:29:21.266Z,10.73
2018-06-21T00:31:49.481Z,9.63
2018-06-21T00:34:17.790Z,10.40
2018-06-21T00:36:46.045Z,11.00
2018-06-21T00:39:14.492Z,12.90
2018-06-21T00:41:42.764Z,10.87
2018-06-21T00:44:11.032Z,10.30
2018-06-21T00:46:39.265Z,10.23
2018-06-21T00:49:07.511Z,13.07
2018-06-21T00:51:35.759Z,8.17
2018-06-21T00:54:04.040Z,12.33
2018-06-21T00:56:32.289Z,8.20
2018-06-21T00:59:00.564Z,10.77
2018-06-21T01:01:28.844Z,14.00
2018-06-21T01:03:57.116Z,8.70
2018-06-21T01:06:25.380Z,12.00
2018-06-21T01:08:53.628Z,15.70
2018-06-21T01:11:21.874Z,8.50
2018-06-21T01:13:50.153Z,9.50
2018-06-21T01:16:18.379Z,13.90
2018-06-21T01:18:46.680Z,12.93
2018-06-21T01:21:14.961Z,12.57
2018-06-21T01:23:43.524Z,8.93
2018-06-21T01:26:11.788Z,8.60
2018-06-21T01:28:40.033Z,12.83
2018-06-21T01:31:08.356Z,10.63
2018-06-21T01:33:36.649Z,12.87
2018-06-21T01:36:04.923Z,10.90
2018-06-21T01:38:33.196Z,13.70
2018-06-21T01:41:01.501Z,16.20
2018-06-21T01:43:29.731Z,12.43
2018-06-21T01:45:58.012Z,10.30
2018-06-21T01:48:26.288Z,11.27
2018-06-21T01:50:54.557Z,12.60
2018-06-21T01:53:22.841Z,19.43
2018-06-21T01:55:51.124Z,18.53
2018-06-21T01:58:19.385Z,9.10
2018-06-21T02:00:47.631Z,11.40
2018-06-21T02:03:15.911Z,26.23
2018-06-21T02:05:44.195Z,10.67
2018-06-21T02:08:12.489Z,14.83
2018-06-21T02:10:40.763Z,15.17
2018-06-21T02:13:09.033Z,25.63
2018-06-21T02:15:37.484Z,13.10
2018-06-21T02:18:05.748Z,18.23
2018-06-21T02:20:34.050Z,17.00
2018-06-21T02:23:02.296Z,17.43
2018-06-21T02:25:30.571Z,13.83
2018-06-21T02:27:58.819Z,10.27
2018-06-21T02:30:27.229Z,15.17
2018-06-21T02:32:55.515Z,12.33
2018-06-21T02:35:23.772Z,20.27
2018-06-21T02:37:52.035Z,12.43
2018-06-21T02:40:20.320Z,14.20
2018-06-21T02:42:48.574Z,17.70
2018-06-21T02:45:16.829Z,18.63
2018-06-21T02:47:45.126Z,19.90
2018-06-21T02:50:13.396Z,16.97
2018-06-21T02:52:41.636Z,27.53
2018-06-21T02:55:09.960Z,16.40
2018-06-21T02:57:38.253Z,25.23
2018-06-21T03:00:06.665Z,23.50
2018-06-21T03:02:35.606Z,17.90
2018-06-21T03:05:03.960Z,18.70
2018-06-21T03:07:32.197Z,17.53
2018-06-21T03:10:00.477Z,14.80
2018-06-21T03:12:28.756Z,16.70
2018-06-21T03:14:57.052Z,20.00
2018-06-21T03:17:25.322Z,19.10
2018-06-21T03:19:53.614Z,23.93
2018-06-21T03:22:21.596Z,16.83
2018-06-21T03:24:49.872Z,28.30
2018-06-21T03:27:18.167Z,33.60
2018-06-21T03:29:46.503Z,34.27
2018-06-21T03:32:14.793Z,30.07
2018-06-21T03:34:42.799Z,33.63
2018-06-21T03:37:11.091Z,31.80
2018-06-21T03:39:39.366Z,34.33
2018-06-21T03:42:07.657Z,34.00
2018-06-21T03:44:36.347Z,40.45
2018-06-21T03:47:04.642Z,38.00
2018-06-21T03:49:32.862Z,36.47
2018-06-21T03:52:01.123Z,45.73
2018-06-21T03:54:29.328Z,45.13
2018-06-21T03:56:57.564Z,40.27
2018-06-21T03:59:25.975Z,45.13
2018-06-21T04:01:54.223Z,49.77
2018-06-21T04:04:22.439Z,37.40
2018-06-21T04:06:50.691Z,40.40
2018-06-21T04:09:18.912Z,38.70
2018-06-21T04:11:47.141Z,43.03
2018-06-21T04:14:15.383Z,33.60
2018-06-21T04:16:43.599Z,29.20
2018-06-21T04:19:11.826Z,34.53
2018-06-21T04:21:40.076Z,32.50
2018-06-21T04:24:08.314Z,31.33
2018-06-21T04:26:36.527Z,34.30
2018-06-21T04:29:04.908Z,33.43
2018-06-21T04:31:33.152Z,32.90
2018-06-21T04:34:01.383Z,41.13
2018-06-21T04:36:29.623Z,36.30
2018-06-21T04:38:57.883Z,34.77
2018-06-21T04:41:26.141Z,30.77
2018-06-21T04:43:54.359Z,35.63
2018-06-21T04:46:22.593Z,48.73
2018-06-21T04:48:50.800Z,59.83
2018-06-21T04:51:19.264Z,45.20
2018-06-21T04:53:47.493Z,46.43
2018-06-21T04:56:15.743Z,33.00
2018-06-21T04:58:43.952Z,46.80
2018-06-21T05:01:12.234Z,29.57
2018-06-21T05:03:40.476Z,36.87
2018-06-21T05:06:08.748Z,30.90
2018-06-21T05:08:36.963Z,41.57
2018-06-21T05:11:05.209Z,36.30
2018-06-21T05:13:33.464Z,36.87
2018-06-21T05:16:02.047Z,40.70
2018-06-21T05:18:30.312Z,35.53
2018-06-21T05:20:58.875Z,35.07
2018-06-21T05:23:27.167Z,35.60
2018-06-21T05:25:55.420Z,37.57
2018-06-21T05:28:23.811Z,39.53
2018-06-21T05:30:52.073Z,37.70
2018-06-21T05:33:20.317Z,32.70
2018-06-21T05:35:48.564Z,31.13
2018-06-21T05:38:16.799Z,32.50
2018-06-21T05:40:45.356Z,37.23
2018-06-21T05:43:13.588Z,32.30
2018-06-21T05:45:41.784Z,52.17
2018-06-21T05:48:09.987Z,26.23
2018-06-21T05:50:38.332Z,27.20
2018-06-21T05:53:06.605Z,30.73
2018-06-21T05:55:35.185Z,31.60
2018-06-21T05:58:03.446Z,32.53
2018-06-21T06:00:31.647Z,29.93
2018-06-21T06:02:59.879Z,24.07
2018-06-21T06:05:28.089Z,30.30
2018-06-21T06:07:56.315Z,26.57
2018-06-21T06:10:24.527Z,18.47
2018-06-21T06:12:52.777Z,8.57
2018-06-21T06:15:20.971Z,14.33
2018-06-21T06:17:49.183Z,18.50
2018-06-21T06:20:17.423Z,9.50
2018-06-21T06:22:45.655Z,16.90
2018-06-21T06:25:13.858Z,22.07
2018-06-21T06:27:42.144Z,19.70
2018-06-21T06:30:10.415Z,11.73
2018-06-21T06:32:38.825Z,11.37
2018-06-21T06:35:07.104Z,13.05
2018-06-21T07:31:29.788Z,9.80
2018-06-21T07:33:58.084Z,15.13
2018-06-21T07:36:26.346Z,11.50
2018-06-21T07:38:54.693Z,16.00
2018-06-21T07:41:22.992Z,14.20
2018-06-21T07:43:51.224Z,9.37
2018-06-21T07:46:19.463Z,11.80
2018-06-21T07:48:47.677Z,5.97
2018-06-21T07:51:15.668Z,8.67
2018-06-21T07:53:43.974Z,7.77
2018-06-21T07:56:12.192Z,11.00
2018-06-21T07:58:40.427Z,9.50
2018-06-21T08:01:08.677Z,10.13
2018-06-21T08:03:36.873Z,6.10
2018-06-21T08:06:05.099Z,5.30
2018-06-21T08:08:33.340Z,15.43
2018-06-21T08:11:01.332Z,5.83
2018-06-21T08:13:29.538Z,5.37
2018-06-21T08:15:57.805Z,8.00
2018-06-21T08:18:26.028Z,9.73
2018-06-21T08:20:54.384Z,5.57
2018-06-21T08:23:22.626Z,13.03
2018-06-21T08:25:50.923Z,9.67
2018-06-21T08:28:19.164Z,13.57
2018-06-21T08:30:47.421Z,12.07
2018-06-21T08:33:15.675Z,6.30
2018-06-21T08:35:43.892Z,14.67
2018-06-21T08:38:12.119Z,7.17
2018-06-21T08:40:40.388Z,13.07
2018-06-21T08:43:08.625Z,8.53
2018-06-21T08:45:36.872Z,8.37
2018-06-21T08:48:05.100Z,8.43
2018-06-21T08:50:33.488Z,14.40
2018-06-21T08:53:01.737Z,10.90
2018-06-21T08:55:29.942Z,9.23
2018-06-21T08:57:58.284Z,9.60
2018-06-21T09:00:26.515Z,9.03
2018-06-21T09:02:54.724Z,10.80
2018-06-21T09:05:23.000Z,9.87
2018-06-21T09:07:51.491Z,11.20
2018-06-21T09:10:19.736Z,8.90
2018-06-21T09:12:47.935Z,8.43
2018-06-21T09:15:15.968Z,8.90
2018-06-21T09:17:44.241Z,5.97
2018-06-21T09:20:12.608Z,25.57
2018-06-21T09:22:40.823Z,5.63
2018-06-21T09:25:09.045Z,5.03
2018-06-21T09:27:37.048Z,11.20
2018-06-21T09:30:05.264Z,5.47
2018-06-21T09:32:33.492Z,9.50
2018-06-21T09:35:01.708Z,8.30
2018-06-21T09:37:35.344Z,13.27
2018-06-21T09:40:08.939Z,13.33
2018-06-21T09:42:42.660Z,6.00
2018-06-21T09:45:10.897Z,8.23
2018-06-21T09:47:44.451Z,17.80
2018-06-21T09:50:16.912Z,14.00
2018-06-21T09:52:45.746Z,10.63
2018-06-21T09:55:13.979Z,18.50
2018-06-21T09:57:42.233Z,7.57
2018-06-21T10:00:14.660Z,6.30
2018-06-21T10:02:42.916Z,6.60
2018-06-21T10:05:11.156Z,15.43
2018-06-21T10:07:39.369Z,15.87
2018-06-21T10:10:07.648Z,13.37
2018-06-21T10:12:35.933Z,7.23
2018-06-21T10:15:06.066Z,6.20
2018-06-21T10:17:34.963Z,7.37
2018-06-21T10:20:03.376Z,11.83
2018-06-21T10:22:32.135Z,5.37
2018-06-21T10:25:00.484Z,6.80
2018-06-21T10:27:28.993Z,10.37
2018-06-21T10:29:57.268Z,10.20
2018-06-21T10:32:25.507Z,5.40
2018-06-21T10:34:53.748Z,6.77
2018-06-21T10:37:21.962Z,7.67
2018-06-21T10:39:50.195Z,11.70
2018-06-21T10:42:18.423Z,13.03
2018-06-21T10:44:46.374Z,13.03
2018-06-21T10:47:14.642Z,15.33
2018-06-21T10:49:42.954Z,10.97
2018-06-21T10:52:11.166Z,12.50
2018-06-21T10:54:39.435Z,14.63
2018-06-21T10:57:07.702Z,12.00
2018-06-21T10:59:35.895Z,10.70
2018-06-21T11:02:03.899Z,8.60
2018-06-21T11:04:32.152Z,6.53
2018-06-21T11:07:00.388Z,10.07
2018-06-21T11:09:28.639Z,12.33
2018-06-21T11:11:56.860Z,9.50
2018-06-21T11:14:25.094Z,10.67
2018-06-21T11:16:53.374Z,4.83
2018-06-21T11:19:21.583Z,5.60
2018-06-21T11:21:49.844Z,10.07
2018-06-21T11:24:18.190Z,8.30
2018-06-21T11:26:46.591Z,9.20
2018-06-21T11:29:14.852Z,6.13
2018-06-21T11:31:43.051Z,19.30
2018-06-21T11:34:11.263Z,10.10
2018-06-21T11:36:39.517Z,17.00
2018-06-21T11:39:09.368Z,11.40
2018-06-21T11:41:37.646Z,5.17
2018-06-21T11:44:06.131Z,9.93
2018-06-21T11:46:34.136Z,23.00
2018-06-21T11:49:02.395Z,6.40
2018-06-21T11:51:30.587Z,7.40
2018-06-21T11:53:58.808Z,12.30
2018-06-21T11:56:27.017Z,6.07
2018-06-21T11:58:55.247Z,7.00
2018-06-21T12:01:23.508Z,11.63
2018-06-21T12:03:51.751Z,10.53
2018-06-21T12:06:19.952Z,4.90
2018-06-21T12:08:48.315Z,4.50
2018-06-21T12:11:16.488Z,6.10
2018-06-21T12:13:44.712Z,6.63
2018-06-21T12:16:12.969Z,14.00
2018-06-21T12:18:41.210Z,9.87
2018-06-21T12:21:09.424Z,14.27
2018-06-21T12:23:37.663Z,30.93
2018-06-21T12:26:05.937Z,9.53
2018-06-21T12:28:34.129Z,17.50
2018-06-21T12:31:02.400Z,6.57
2018-06-21T12:33:30.621Z,14.63
2018-06-21T12:35:58.949Z,7.57
2018-06-21T12:38:27.169Z,5.83
2018-06-21T12:40:55.439Z,5.53
2018-06-21T12:43:23.684Z,26.63
2018-06-21T12:45:51.937Z,8.70
2018-06-21T12:48:20.156Z,14.03
2018-06-21T12:50:48.386Z,15.23
2018-06-21T12:53:16.625Z,11.23
2018-06-21T12:55:44.868Z,6.83
2018-06-21T12:58:13.068Z,8.80
2018-06-21T13:00:41.328Z,7.87
2018-06-21T13:03:09.547Z,9.57
2018-06-21T13:05:37.810Z,8.70
2018-06-21T13:08:06.044Z,9.30
2018-06-21T13:10:45.670Z,7.57
2018-06-21T13:13:23.058Z,18.67
2018-06-21T13:15:51.296Z,6.07
2018-06-21T13:18:19.555Z,15.53
2018-06-21T13:20:47.844Z,8.10
2018-06-21T13:23:16.281Z,7.40
2018-06-21T13:25:44.508Z,7.53
2018-06-21T13:28:12.738Z,7.57
2018-06-21T13:30:41.035Z,10.43
2018-06-21T13:33:09.313Z,10.77
2018-06-21T13:35:37.274Z,8.07
2018-06-21T13:38:05.492Z,12.70
2018-06-21T13:40:33.743Z,20.20
2018-06-21T13:43:01.991Z,10.13
2018-06-21T13:45:30.219Z,8.53
2018-06-21T13:47:58.455Z,7.37
2018-06-21T13:50:26.737Z,6.80
2018-06-21T13:52:55.008Z,16.23
2018-06-21T13:55:23.212Z,13.47
2018-06-21T13:57:51.460Z,7.53
2018-06-21T14:00:19.906Z,11.10
2018-06-21T14:02:48.127Z,9.40
2018-06-21T14:05:16.375Z,10.20
2018-06-21T14:07:44.693Z,7.57
2018-06-21T14:10:12.836Z,9.73
2018-06-21T14:12:41.055Z,17.53
2018-06-21T14:15:09.295Z,7.37
2018-06-21T14:17:37.496Z,5.43
2018-06-21T14:20:05.741Z,9.00
2018-06-21T14:22:33.978Z,7.97
2018-06-21T14:25:02.177Z,10.40
2018-06-21T14:27:30.395Z,8.13
2018-06-21T14:29:58.832Z,5.17
2018-06-21T14:32:27.068Z,4.83
2018-06-21T14:34:56.347Z,6.80
2018-06-21T14:37:24.688Z,10.63
2018-06-21T14:39:52.931Z,9.07
2018-06-21T14:42:21.279Z,11.73
2018-06-21T14:44:49.468Z,8.60
2018-06-21T14:47:17.692Z,4.07
2018-06-21T14:49:45.947Z,8.60
2018-06-21T14:52:14.200Z,10.27
2018-06-21T14:54:42.561Z,6.70
2018-06-21T14:57:10.925Z,3.30
2018-06-21T14:59:39.338Z,14.33
2018-06-21T15:02:07.569Z,5.23
2018-06-21T15:04:35.792Z,5.60
2018-06-21T15:07:04.009Z,7.60
2018-06-21T15:09:32.284Z,6.90
2018-06-21T15:12:00.489Z,8.93
2018-06-21T15:14:28.739Z,9.43
2018-06-21T15:16:57.047Z,7.23
2018-06-21T15:19:25.305Z,9.40
2018-06-21T15:21:53.592Z,11.47
2018-06-21T15:24:21.841Z,10.10
2018-06-21T15:26:50.060Z,6.63
2018-06-21T15:29:19.434Z,8.30
2018-06-21T15:31:47.687Z,4.83
2018-06-21T15:34:15.895Z,10.83
2018-06-21T15:36:44.123Z,7.30
2018-06-21T15:39:21.580Z,5.93
2018-06-21T15:41:49.859Z,7.87
2018-06-21T15:44:18.436Z,7.10
2018-06-21T15:46:46.648Z,7.40
2018-06-21T15:49:15.399Z,5.23
2018-06-21T15:51:43.767Z,6.30
2018-06-21T15:54:12.036Z,5.30
2018-06-21T15:56:40.268Z,4.07
2018-06-21T15:59:08.934Z,12.63
2018-06-21T16:01:37.634Z,5.23
2018-06-21T16:04:06.522Z,7.87
2018-06-21T16:06:35.248Z,5.50
2018-06-21T16:09:04.481Z,8.37
2018-06-21T16:11:33.089Z,12.40
2018-06-21T16:14:01.802Z,11.03
2018-06-21T16:16:30.180Z,15.30
2018-06-21T16:18:58.455Z,10.17
2018-06-21T16:21:26.704Z,14.53
2018-06-21T16:23:54.945Z,7.00
2018-06-21T16:26:23.240Z,12.00
2018-06-21T16:28:51.526Z,9.50
2018-06-21T16:31:19.796Z,7.67
2018-06-21T16:33:48.032Z,7.70
2018-06-21T16:36:16.251Z,5.97
2018-06-21T16:38:44.771Z,10.20
2018-06-21T16:41:13.016Z,5.40
2018-06-21T16:43:41.241Z,8.23
2018-06-21T16:46:09.487Z,13.97
2018-06-21T16:48:37.712Z,10.30
2018-06-21T16:51:06.050Z,8.43
2018-06-21T16:53:34.271Z,11.93
2018-06-21T16:56:02.504Z,7.23
2018-06-21T16:58:30.832Z,12.50
2018-06-21T17:00:59.090Z,12.83
2018-06-21T17:03:27.340Z,9.50
2018-06-21T17:05:55.572Z,30.83
2018-06-21T17:08:23.767Z,7.33
2018-06-21T17:10:51.827Z,15.90
2018-06-21T17:13:20.067Z,11.87
2018-06-21T17:15:48.336Z,10.40
2018-06-21T17:18:16.523Z,12.13
2018-06-21T17:20:45.888Z,7.30
2018-06-21T17:23:14.084Z,9.73
2018-06-21T17:25:42.311Z,7.67
2018-06-21T17:28:10.497Z,9.17
2018-06-21T17:30:38.712Z,16.40
2018-06-21T17:33:06.981Z,11.83
2018-06-21T17:35:35.251Z,8.37
2018-06-21T17:38:03.560Z,14.03
2018-06-21T17:40:32.077Z,5.30
2018-06-21T17:43:00.300Z,14.47
2018-06-21T17:45:28.540Z,7.90
2018-06-21T17:47:56.516Z,11.90
2018-06-21T17:50:24.792Z,14.43
2018-06-21T17:52:53.271Z,7.80
2018-06-21T17:55:21.968Z,10.17
2018-06-21T17:57:50.763Z,11.40
2018-06-21T18:00:19.443Z,8.60
2018-06-21T18:02:47.645Z,14.27
2018-06-21T18:05:15.952Z,5.63
2018-06-21T18:07:44.192Z,7.70
2018-06-21T18:10:12.479Z,7.73
2018-06-21T18:12:40.684Z,7.13
2018-06-21T18:15:08.911Z,7.33
2018-06-21T18:17:37.124Z,9.93
2018-06-21T18:20:05.139Z,7.73
2018-06-21T18:22:33.440Z,12.50
2018-06-21T18:25:01.685Z,11.63
2018-06-21T18:27:30.045Z,11.97
2018-06-21T18:29:58.279Z,13.40
2018-06-21T18:32:26.500Z,10.33
2018-06-21T18:34:55.031Z,16.17
2018-06-21T18:37:23.303Z,9.40
2018-06-21T18:39:51.552Z,9.87
2018-06-21T18:42:19.900Z,5.00
2018-06-21T18:44:47.900Z,14.03
2018-06-21T18:47:16.091Z,11.90
2018-06-21T18:49:44.375Z,13.83
2018-06-21T18:52:12.581Z,13.43
2018-06-21T18:54:40.938Z,8.33
2018-06-21T18:57:09.143Z,9.90
2018-06-21T18:59:37.428Z,12.60
2018-06-21T19:02:05.699Z,14.60
2018-06-21T19:04:33.948Z,11.37
2018-06-21T19:07:07.430Z,16.73
2018-06-21T19:09:40.986Z,6.77
2018-06-21T19:12:09.994Z,17.80
2018-06-21T19:14:38.221Z,12.40
2018-06-21T19:17:06.439Z,13.80
2018-06-21T19:19:34.760Z,11.83
2018-06-21T19:22:02.975Z,5.33
2018-06-21T19:24:31.222Z,8.73
2018-06-21T19:26:59.670Z,8.00
2018-06-21T19:29:27.947Z,14.93
2018-06-21T19:31:56.203Z,7.13
2018-06-21T19:34:24.447Z,12.83
2018-06-21T19:36:52.681Z,8.10
2018-06-21T19:39:20.880Z,18.30
2018-06-21T19:41:49.106Z,15.47
2018-06-21T19:44:17.332Z,9.70
2018-06-21T19:46:45.575Z,20.37
2018-06-21T19:49:13.872Z,13.00
2018-06-21T19:51:42.099Z,12.53
2018-06-21T19:54:10.425Z,11.47
2018-06-21T19:56:38.638Z,17.10
2018-06-21T19:59:06.841Z,17.97
2018-06-21T20:01:35.086Z,15.30
2018-06-21T20:04:03.352Z,18.13
2018-06-21T20:06:31.604Z,16.40
2018-06-21T20:09:00.052Z,8.50
2018-06-21T20:11:33.600Z,14.53
2018-06-21T20:14:01.830Z,24.17
2018-06-21T20:16:30.084Z,7.90
2018-06-21T20:19:06.856Z,17.73
2018-06-21T20:21:35.160Z,15.87
2018-06-21T20:24:03.388Z,13.87
2018-06-21T20:26:31.637Z,15.97
2018-06-21T20:28:59.848Z,15.60
2018-06-21T20:31:28.091Z,20.87
2018-06-21T20:33:56.363Z,16.03
2018-06-21T20:36:28.944Z,21.90
2018-06-21T20:38:57.164Z,10.63
2018-06-21T20:41:25.412Z,16.63
2018-06-21T20:43:53.634Z,7.40
2018-06-21T20:46:21.901Z,24.00
2018-06-21T20:48:50.108Z,19.03
2018-06-21T20:51:18.355Z,11.80
2018-06-21T20:53:46.561Z,8.13
2018-06-21T20:56:14.794Z,14.13
2018-06-21T20:58:43.016Z,15.40
2018-06-21T21:01:11.247Z,15.20
2018-06-21T21:03:39.504Z,15.67
2018-06-21T21:06:07.692Z,21.93
2018-06-21T21:08:35.932Z,15.87
2018-06-21T21:11:04.270Z,16.50
2018-06-21T21:13:32.494Z,11.27
2018-06-21T21:16:00.712Z,24.17
2018-06-21T21:18:28.936Z,16.67
2018-06-21T21:20:57.144Z,17.57
2018-06-21T21:23:25.368Z,18.87
2018-06-21T21:25:53.592Z,10.87
2018-06-21T21:28:21.870Z,16.47
2018-06-21T21:30:50.033Z,15.00
2018-06-21T21:33:18.309Z,13.67
2018-06-21T21:35:46.550Z,9.70
2018-06-21T21:38:14.511Z,9.03
2018-06-21T21:40:42.767Z,16.13
2018-06-21T21:43:11.004Z,14.73
2018-06-21T21:45:39.220Z,8.50
2018-06-21T21:48:07.472Z,13.73
2018-06-21T21:50:35.707Z,21.23
2018-06-21T21:53:03.920Z,23.53
2018-06-21T21:55:32.151Z,8.00
2018-06-21T21:58:00.127Z,11.60
2018-06-21T22:00:45.323Z,13.07
2018-06-21T22:03:13.597Z,10.47
2018-06-21T22:05:42.100Z,26.17
2018-06-21T22:08:10.545Z,15.40
2018-06-21T22:10:39.333Z,12.57
2018-06-21T22:13:07.579Z,20.00
2018-06-21T22:15:35.828Z,16.83
2018-06-21T22:18:04.060Z,21.63
2018-06-21T22:20:32.299Z,13.60
2018-06-21T22:23:00.613Z,7.60
2018-06-21T22:25:29.383Z,13.07
2018-06-21T22:27:58.731Z,13.53
2018-06-21T22:30:27.488Z,8.30
2018-06-21T22:32:55.898Z,18.13
2018-06-21T22:35:24.158Z,19.03
2018-06-21T22:37:52.450Z,18.10
2018-06-21T22:40:20.688Z,4.97
2018-06-21T22:42:48.924Z,26.47
2018-06-21T22:45:17.160Z,8.47
2018-06-21T22:47:45.380Z,14.53
2018-06-21T22:50:13.684Z,8.97
2018-06-21T22:52:41.913Z,11.93
2018-06-21T22:55:10.143Z,12.43
2018-06-21T22:57:38.415Z,12.43
2018-06-21T23:00:06.696Z,12.37
2018-06-21T23:02:34.919Z,7.30
2018-06-21T23:05:03.165Z,5.57
2018-06-21T23:07:31.372Z,17.13
2018-06-21T23:09:59.580Z,18.93
2018-06-21T23:12:27.910Z,14.67
2018-06-21T23:14:56.100Z,22.77
2018-06-21T23:17:24.336Z,13.00
2018-06-21T23:19:52.589Z,15.40
2018-06-21T23:22:20.834Z,7.13
2018-06-21T23:24:48.835Z,18.40
2018-06-21T23:27:17.200Z,21.10
2018-06-21T23:29:45.573Z,13.23
2018-06-21T23:32:13.792Z,17.37
2018-06-21T23:34:42.029Z,10.00
2018-06-21T23:37:10.237Z,18.13
2018-06-21T23:39:38.472Z,17.13
2018-06-21T23:42:06.712Z,13.33
2018-06-21T23:44:34.920Z,7.90
2018-06-21T23:47:03.181Z,19.80
2018-06-21T23:49:31.411Z,12.63
2018-06-21T23:51:59.660Z,5.67
2018-06-21T23:54:27.903Z,10.60
2018-06-21T23:56:56.140Z,9.27
2018-06-21T23:59:24.479Z,9.87
